Time;durP1;ratioP1;P1;durP2;ratioP2;P2;SDS_P1;SDS_P2;PMS_P1;PMS_P2;Temp;Humidity;BMP_temperature;BMP_pressure;BME280_temperature;BME280_humidity;BME280_pressure;Samples;Min_cycle;Max_cycle;Signal;HPM_P1;HPM_P2
2021/05/17 00:02:27;;;;;;;26.20;10.60;;;;;;;8.87;100.00;99965.59;5106113;28;20081;-63
2021/05/17 00:04:53;;;;;;;26.55;10.45;;;;;;;8.78;100.00;99948.06;5103119;28;20036;-63
2021/05/17 00:07:18;;;;;;;27.33;10.38;;;;;;;8.73;100.00;99944.53;5098621;28;20028;-77
2021/05/17 00:09:44;;;;;;;24.13;10.25;;;;;;;8.80;100.00;99951.56;5105622;28;20027;-77
2021/05/17 00:12:11;;;;;;;25.65;10.60;;;;;;;8.75;100.00;99952.44;5103836;28;20030;-75
2021/05/17 00:14:36;;;;;;;25.77;10.15;;;;;;;8.71;100.00;99941.06;5104518;28;20032;-76
2021/05/17 00:17:03;;;;;;;25.73;10.00;;;;;;;8.58;100.00;99950.72;5104668;28;20023;-76
2021/05/17 00:19:28;;;;;;;22.98;9.48;;;;;;;8.57;100.00;99948.09;5103492;28;20036;-77
2021/05/17 00:21:54;;;;;;;25.25;9.73;;;;;;;8.49;100.00;99951.63;5105777;28;20031;-76
2021/05/17 00:24:20;;;;;;;24.63;10.15;;;;;;;8.45;100.00;99949.88;5102385;28;20036;-73
2021/05/17 00:26:46;;;;;;;24.80;10.05;;;;;;;8.47;100.00;99953.38;5105555;28;20030;-70
2021/05/17 00:29:12;;;;;;;28.05;11.30;;;;;;;8.52;100.00;99956.00;5103036;28;20024;-73
2021/05/17 00:31:39;;;;;;;27.33;11.65;;;;;;;8.52;100.00;99946.34;5104386;28;20377;-74
2021/05/17 00:34:06;;;;;;;25.98;11.10;;;;;;;8.54;100.00;99946.34;5104036;28;20080;-77
2021/05/17 00:36:32;;;;;;;26.05;10.77;;;;;;;8.51;100.00;99939.31;5102454;28;20032;-77
2021/05/17 00:38:58;;;;;;;25.65;11.35;;;;;;;8.54;100.00;99952.47;5105114;28;20497;-76
2021/05/17 00:41:25;;;;;;;26.42;10.90;;;;;;;8.49;100.00;99951.63;5102444;28;20086;-76
2021/05/17 00:43:53;;;;;;;27.67;11.23;;;;;;;8.54;100.00;99946.34;5105648;28;20074;-71
2021/05/17 00:46:19;;;;;;;30.10;12.15;;;;;;;8.51;100.00;99949.84;5100610;28;20115;-77
2021/05/17 00:48:45;;;;;;;28.38;12.05;;;;;;;8.48;100.00;99944.59;5105127;28;20020;-77
2021/05/17 00:51:10;;;;;;;32.03;12.48;;;;;;;8.45;100.00;99939.31;5102999;28;20019;-75
2021/05/17 00:53:37;;;;;;;31.48;12.40;;;;;;;8.36;100.00;99945.44;5102663;28;20467;-75
2021/05/17 00:56:05;;;;;;;34.05;14.13;;;;;;;8.41;100.00;99936.69;5104088;28;20094;-63
2021/05/17 00:58:32;;;;;;;33.65;14.05;;;;;;;8.34;100.00;99938.44;5102732;28;20032;-63
2021/05/17 01:00:58;;;;;;;37.30;15.30;;;;;;;8.30;100.00;99929.66;5104329;28;20060;-63
2021/05/17 01:03:23;;;;;;;35.95;16.30;;;;;;;8.31;100.00;99936.66;5101997;28;20024;-64
2021/05/17 01:05:50;;;;;;;37.88;15.50;;;;;;;8.25;100.00;99936.69;5105210;28;20562;-63
2021/05/17 01:08:22;;;;;;;36.13;15.10;;;;;;;8.27;100.00;99940.19;5101830;28;20597;-63
2021/05/17 01:10:49;;;;;;;37.67;15.52;;;;;;;8.25;100.00;99936.69;5105207;28;20023;-63
2021/05/17 01:13:14;;;;;;;36.60;15.32;;;;;;;8.24;100.00;99929.66;5101832;28;20028;-63
2021/05/17 01:15:40;;;;;;;38.20;15.10;;;;;;;8.26;100.00;99925.28;5104138;28;20498;-63
2021/05/17 01:18:06;;;;;;;36.08;15.75;;;;;;;8.25;100.00;99933.19;5103500;28;20024;-63
2021/05/17 01:20:33;;;;;;;36.08;15.23;;;;;;;8.23;100.00;99925.28;5102889;28;20028;-63
2021/05/17 01:25:50;;;;;;;34.58;14.55;;;;;;;8.22;100.00;99936.69;5104863;28;20038;-63
2021/05/17 01:28:22;;;;;;;35.30;14.35;;;;;;;8.24;100.00;99937.53;5101764;28;20024;-63
2021/05/17 01:30:56;;;;;;;34.25;14.93;;;;;;;8.21;100.00;99932.28;5104445;28;20492;-63
2021/05/17 01:33:22;;;;;;;34.83;14.80;;;;;;;8.24;100.00;99921.75;5097432;28;20027;-63
2021/05/17 01:35:48;;;;;;;35.35;14.27;;;;;;;8.21;100.00;99924.38;5104603;28;20012;-63
2021/05/17 01:38:17;;;;;;;36.00;14.48;;;;;;;8.21;100.00;99934.91;5101939;28;20036;-76
2021/05/17 01:40:44;;;;;;;33.13;12.80;;;;;;;8.17;100.00;99927.94;5103749;28;20035;-73
2021/05/17 01:43:15;;;;;;;34.25;13.77;;;;;;;8.18;100.00;99935.81;5102090;28;20035;-72
2021/05/17 01:45:41;;;;;;;32.60;13.82;;;;;;;8.22;100.00;99931.41;5103798;28;20032;-65
2021/05/17 01:48:07;;;;;;;35.33;14.88;;;;;;;8.22;100.00;99922.66;5107082;28;20370;-70
2021/05/17 01:50:34;;;;;;;34.95;14.30;;;;;;;8.23;100.00;99937.53;5109434;28;20027;-68
2021/05/17 01:52:59;;;;;;;34.15;14.13;;;;;;;8.22;100.00;99930.56;5110636;27;20549;-67
2021/05/17 01:55:25;;;;;;;36.05;14.55;;;;;;;8.23;100.00;99932.28;5107952;28;20107;-73
2021/05/17 01:58:06;;;;;;;33.88;14.05;;;;;;;8.21;100.00;99929.66;5111688;27;20076;-74
2021/05/17 02:00:32;;;;;;;31.55;13.27;;;;;;;8.22;100.00;99934.03;5106037;28;20487;-73
2021/05/17 02:02:59;;;;;;;34.08;13.38;;;;;;;8.21;100.00;99929.66;5111043;27;20028;-75
2021/05/17 02:05:25;;;;;;;33.13;13.35;;;;;;;8.19;100.00;99928.78;5107683;28;20047;-70
2021/05/17 02:07:52;;;;;;;31.67;12.85;;;;;;;8.25;100.00;99936.69;5111685;27;20027;-76
2021/05/17 02:10:19;;;;;;;33.08;13.05;;;;;;;8.26;100.00;99935.81;5107836;27;20027;-63
2021/05/17 02:12:44;;;;;;;32.45;12.60;;;;;;;8.25;100.00;99925.28;5110317;28;20027;-63
2021/05/17 02:15:10;;;;;;;34.80;13.25;;;;;;;8.27;100.00;99926.13;5109054;27;20122;-63
2021/05/17 02:17:36;;;;;;;31.42;11.90;;;;;;;8.27;100.00;99931.41;5109404;28;20372;-64
2021/05/17 02:20:03;;;;;;;32.78;11.95;;;;;;;8.29;100.00;99927.91;5110051;27;20049;-63
2021/05/17 02:22:28;;;;;;;32.20;11.93;;;;;;;8.26;100.00;99927.91;5108296;28;20394;-71
2021/05/17 02:24:54;;;;;;;33.83;12.57;;;;;;;8.29;100.00;99927.91;5110687;27;20027;-71
2021/05/17 02:27:20;;;;;;;31.77;12.15;;;;;;;8.29;100.00;99927.03;5107460;28;20111;-73
2021/05/17 02:29:46;;;;;;;30.98;11.52;;;;;;;8.28;100.00;99925.28;5110623;28;20450;-73
2021/05/17 02:32:21;;;;;;;30.40;10.57;;;;;;;8.28;100.00;99934.03;5108485;27;20393;-73
2021/05/17 02:34:48;;;;;;;28.25;10.82;;;;;;;8.28;100.00;99927.91;5110559;28;20027;-73
2021/05/17 02:37:13;;;;;;;32.67;12.07;;;;;;;8.30;100.00;99929.66;5108112;27;20044;-74
2021/05/17 02:39:39;;;;;;;31.60;11.85;;;;;;;8.31;100.00;99934.03;5109804;28;20024;-68
2021/05/17 02:42:12;;;;;;;28.80;11.60;;;;;;;8.33;100.00;99936.66;5109295;27;20042;-70
2021/05/17 02:44:37;;;;;;;31.63;11.95;;;;;;;8.35;100.00;99929.66;5109166;28;20035;-72
2021/05/17 02:47:03;;;;;;;28.60;11.25;;;;;;;8.33;100.00;99937.56;5109918;27;20355;-72
2021/05/17 02:49:33;;;;;;;32.63;11.73;;;;;;;8.34;100.00;99933.16;5107934;28;20439;-72
2021/05/17 02:51:59;;;;;;;29.17;10.55;;;;;;;8.32;100.00;99941.06;5110342;27;20020;-71
2021/05/17 02:54:30;;;;;;;31.42;10.48;;;;;;;8.36;100.00;99934.06;5107392;28;20031;-69
2021/05/17 02:56:58;;;;;;;29.73;10.70;;;;;;;8.33;100.00;99940.19;5110248;27;20024;-74
2021/05/17 02:59:42;;;;;;;31.15;10.32;;;;;;;8.33;100.00;99934.03;5104041;28;20375;-68
2021/05/17 03:02:10;;;;;;;28.65;9.98;;;;;;;8.33;100.00;99929.66;5105545;28;20160;-74
2021/05/17 03:04:37;;;;;;;29.10;9.93;;;;;;;8.37;100.00;99934.03;5105816;28;20020;-75
2021/05/17 03:07:08;;;;;;;27.92;9.68;;;;;;;8.38;100.00;99930.50;5106145;28;20023;-74
2021/05/17 03:09:35;;;;;;;30.17;10.82;;;;;;;8.42;100.00;99938.41;5105075;28;20475;-73
2021/05/17 03:12:02;;;;;;;29.98;10.80;;;;;;;8.40;100.00;99932.28;5106692;28;20397;-68
2021/05/17 03:14:29;;;;;;;28.23;11.40;;;;;;;8.40;100.00;99935.78;5104643;28;20012;-70
2021/05/17 03:16:58;;;;;;;30.23;11.23;;;;;;;8.41;100.00;99936.69;5107198;28;20055;-69
2021/05/17 03:19:23;;;;;;;30.58;12.02;;;;;;;8.44;100.00;99934.03;5103618;28;20081;-74
2021/05/17 03:21:54;;;;;;;30.58;11.75;;;;;;;8.42;100.00;99933.13;5107133;28;20032;-73
2021/05/17 03:24:21;;;;;;;30.15;12.02;;;;;;;8.42;100.00;99934.03;5103485;28;20032;-75
2021/05/17 03:26:48;;;;;;;31.15;12.50;;;;;;;8.44;100.00;99936.66;5106704;28;20121;-75
2021/05/17 03:29:13;;;;;;;30.23;12.50;;;;;;;8.44;100.00;99936.66;5104592;28;20431;-68
2021/05/17 03:31:39;;;;;;;28.85;11.95;;;;;;;8.42;100.00;99930.50;5105357;28;20103;-71
2021/05/17 03:34:04;;;;;;;29.00;11.25;;;;;;;8.41;100.00;99928.78;5105579;27;20080;-71
2021/05/17 03:36:29;;;;;;;30.30;12.15;;;;;;;8.45;100.00;99933.19;5104550;28;20039;-76
2021/05/17 03:38:55;;;;;;;29.30;11.75;;;;;;;8.46;100.00;99932.28;5106839;27;20023;-65
2021/05/17 03:41:20;;;;;;;32.55;13.27;;;;;;;8.46;100.00;99932.28;5103758;28;20028;-65
2021/05/17 03:43:45;;;;;;;30.42;14.02;;;;;;;8.47;100.00;99924.38;5106157;28;20028;-74
2021/05/17 03:46:11;;;;;;;32.90;14.75;;;;;;;8.44;100.00;99923.50;5104634;28;20034;-74
2021/05/17 03:48:40;;;;;;;34.88;17.25;;;;;;;8.45;100.00;99925.28;5104948;28;20024;-71
2021/05/17 03:51:07;;;;;;;35.28;17.23;;;;;;;8.42;100.00;99934.03;5105093;28;20015;-67
2021/05/17 03:53:32;;;;;;;36.45;17.52;;;;;;;8.48;100.00;99925.28;5103935;28;20107;-64
2021/05/17 03:55:58;;;;;;;35.30;17.80;;;;;;;8.48;100.00;99922.66;5106180;28;20141;-63
2021/05/17 03:58:23;;;;;;;39.58;18.95;;;;;;;8.57;100.00;99933.16;5103074;28;20471;-66
2021/05/17 04:00:48;;;;;;;38.25;19.27;;;;;;;8.54;100.00;99926.13;5106015;28;20385;-63
2021/05/17 04:03:16;;;;;;;37.70;18.83;;;;;;;8.57;100.00;99933.16;5103841;28;20019;-64
2021/05/17 04:05:56;;;;;;;36.67;18.70;;;;;;;8.55;100.00;99934.94;5105001;28;20047;-63
2021/05/17 04:13:35;;;;;;;34.10;16.45;;;;;;;8.59;100.00;99941.97;5102191;28;20035;-71
2021/05/17 04:16:01;;;;;;;35.38;16.05;;;;;;;8.57;100.00;99933.16;5105467;28;20023;-76
2021/05/17 04:18:26;;;;;;;34.28;16.10;;;;;;;8.61;100.00;99936.69;5102752;28;20093;-67
2021/05/17 04:20:53;;;;;;;33.22;15.50;;;;;;;8.63;100.00;99940.19;5105898;28;20020;-74
2021/05/17 04:23:21;;;;;;;34.47;15.13;;;;;;;8.66;100.00;99938.41;5103155;28;20062;-72
2021/05/17 04:25:47;;;;;;;34.67;14.93;;;;;;;8.66;100.00;99945.44;5105352;28;20427;-74
2021/05/17 04:28:12;;;;;;;32.55;14.48;;;;;;;8.70;100.00;99937.50;5103434;28;20024;-73
2021/05/17 04:30:38;;;;;;;31.90;14.80;;;;;;;8.70;100.00;99940.16;5104294;28;20054;-71
2021/05/17 04:33:03;;;;;;;31.30;14.25;;;;;;;8.72;100.00;99943.69;5104684;28;20106;-73
2021/05/17 04:35:29;;;;;;;30.70;13.82;;;;;;;8.77;100.00;99940.16;5102671;28;20145;-66
2021/05/17 04:37:54;;;;;;;31.98;14.13;;;;;;;8.82;100.00;99938.38;5106034;28;20058;-68
2021/05/17 04:40:20;;;;;;;30.80;14.00;;;;;;;8.82;100.00;99944.50;5102127;28;20028;-72
2021/05/17 04:42:45;;;;;;;29.65;14.13;;;;;;;8.85;100.00;99944.53;5104740;28;20028;-72
2021/05/17 04:45:11;;;;;;;30.15;12.75;;;;;;;8.87;100.00;99950.66;5103490;28;20016;-68
2021/05/17 04:47:37;;;;;;;29.40;13.40;;;;;;;8.88;100.00;99948.88;5103472;28;20051;-74
2021/05/17 04:50:06;;;;;;;30.08;13.30;;;;;;;8.94;100.00;99951.53;5104566;28;20098;-69
2021/05/17 04:52:32;;;;;;;32.63;13.50;;;;;;;8.99;100.00;99941.84;5102986;28;20099;-73
2021/05/17 04:54:58;;;;;;;31.48;13.05;;;;;;;9.01;100.00;99947.09;5105125;28;20112;-75
2021/05/17 04:57:23;;;;;;;30.25;13.27;;;;;;;9.07;100.00;99953.25;5102134;28;20451;-71
2021/05/17 04:59:49;;;;;;;29.52;13.00;;;;;;;9.11;100.00;99947.94;5103684;28;20099;-71
2021/05/17 05:02:14;;;;;;;29.67;12.85;;;;;;;9.11;100.00;99956.72;5102168;28;20394;-67
2021/05/17 05:04:39;;;;;;;29.67;12.43;;;;;;;9.17;100.00;99964.59;5103784;28;20390;-63
2021/05/17 05:07:07;;;;;;;32.88;12.95;;;;;;;9.22;100.00;99957.56;5103625;28;20338;-63
2021/05/17 05:09:32;;;;;;;26.88;11.27;;;;;;;9.22;100.00;99948.78;5102685;28;20024;-63
2021/05/17 05:11:57;;;;;;;29.55;12.20;;;;;;;9.27;100.00;99954.91;5104894;28;20030;-63
2021/05/17 05:14:23;;;;;;;25.70;10.05;;;;;;;9.28;100.00;99954.03;5101745;28;20028;-63
2021/05/17 05:16:48;;;;;;;27.65;11.50;;;;;;;9.31;100.00;99959.28;5104688;28;20023;-63
2021/05/17 05:19:13;;;;;;;27.17;11.13;;;;;;;9.38;100.00;99950.47;5102604;28;20458;-63
2021/05/17 05:21:39;;;;;;;29.60;11.40;;;;;;;9.38;100.00;99955.75;5102737;28;20028;-63
2021/05/17 05:24:05;;;;;;;28.77;10.93;;;;;;;9.31;100.00;99953.16;5103652;28;20031;-63
2021/05/17 05:29:10;;;;;;;29.23;11.18;;;;;;;9.25;100.00;99954.03;5098150;28;20054;-64
2021/05/17 05:31:53;;;;;;;30.08;10.98;;;;;;;9.21;100.00;99962.84;5089613;28;20501;-63
2021/05/17 05:34:19;;;;;;;30.13;11.45;;;;;;;9.22;100.00;99954.06;5091695;28;20085;-63
2021/05/17 05:36:44;;;;;;;29.92;10.68;;;;;;;9.22;100.00;99964.59;5093731;28;20383;-64
2021/05/17 05:39:10;;;;;;;29.10;10.93;;;;;;;9.22;100.00;99961.97;5091081;28;20059;-63
2021/05/17 05:41:35;;;;;;;30.13;10.88;;;;;;;9.22;100.00;99969.88;5091477;28;20020;-63
2021/05/17 05:44:00;;;;;;;30.15;10.27;;;;;;;9.25;100.00;99959.31;5092210;28;20028;-63
2021/05/17 05:46:26;;;;;;;30.05;9.90;;;;;;;9.33;100.00;99968.06;5092299;28;20078;-63
2021/05/17 05:48:52;;;;;;;25.20;9.35;;;;;;;9.34;100.00;99964.53;5092473;28;20028;-62
2021/05/17 05:51:21;;;;;;;28.58;9.63;;;;;;;9.40;100.00;99963.63;5092521;28;20027;-62
2021/05/17 05:53:46;;;;;;;25.35;9.40;;;;;;;9.40;100.00;99967.13;5091024;28;20058;-61
2021/05/17 05:56:11;;;;;;;29.65;9.48;;;;;;;9.41;100.00;99966.25;5092004;28;20061;-61
2021/05/17 05:58:37;;;;;;;29.08;9.30;;;;;;;9.47;100.00;99967.13;5091140;28;20070;-62
2021/05/17 06:01:03;;;;;;;27.50;9.73;;;;;;;9.52;100.00;99967.97;5090048;28;20055;-62
2021/05/17 06:03:28;;;;;;;27.45;9.40;;;;;;;9.57;100.00;99966.19;5091034;28;20039;-62
2021/05/17 06:05:53;;;;;;;30.40;9.52;;;;;;;9.60;100.00;99967.03;5093305;28;20525;-62
2021/05/17 06:08:19;;;;;;;26.10;9.25;;;;;;;9.61;100.00;99970.59;5090893;28;20058;-62
2021/05/17 06:10:44;;;;;;;27.88;9.70;;;;;;;9.61;100.00;99967.94;5092317;28;20020;-63
2021/05/17 06:13:10;;;;;;;27.75;10.18;;;;;;;9.63;100.00;99974.06;5091577;28;20033;-61
2021/05/17 06:15:36;;;;;;;29.63;10.40;;;;;;;9.73;100.00;99973.13;5090958;28;20030;-64
2021/05/17 06:18:02;;;;;;;29.13;10.25;;;;;;;9.88;100.00;99977.44;5089888;28;20498;-63
2021/05/17 06:20:27;;;;;;;26.08;9.90;;;;;;;9.99;100.00;99973.84;5091542;28;20020;-64
2021/05/17 06:22:53;;;;;;;28.00;9.30;;;;;;;9.97;100.00;99973.00;5090705;28;20032;-62
2021/05/17 06:25:19;;;;;;;28.02;9.05;;;;;;;9.99;100.00;99974.75;5091029;28;20413;-63
2021/05/17 06:27:44;;;;;;;25.92;9.18;;;;;;;9.98;100.00;99980.03;5090127;28;20113;-61
2021/05/17 06:30:13;;;;;;;30.42;10.40;;;;;;;10.12;100.00;99981.69;5090663;28;20028;-62
2021/05/17 06:32:39;;;;;;;25.25;8.90;;;;;;;10.31;100.00;99970.97;5089455;28;20085;-62
2021/05/17 06:35:07;;;;;;;27.05;8.35;;;;;;;10.37;100.00;99976.22;5088247;28;20102;-62
2021/05/17 06:37:33;;;;;;;24.88;8.57;;;;;;;10.36;100.00;99974.47;5094705;28;20024;-62
2021/05/17 06:39:59;;;;;;;24.63;7.72;;;;;;;10.40;100.00;99978.84;5095429;28;20364;-61
2021/05/17 06:42:24;;;;;;;26.70;8.75;;;;;;;10.45;100.00;99984.94;5094128;28;20101;-62
2021/05/17 06:44:50;;;;;;;25.58;7.57;;;;;;;10.52;100.00;99984.91;5095360;28;20028;-62
2021/05/17 06:47:17;;;;;;;24.27;7.72;;;;;;;10.53;100.00;99982.25;5093993;28;20031;-62
2021/05/17 06:49:43;;;;;;;25.38;7.25;;;;;;;10.60;100.00;99977.78;5095149;28;20081;-62
2021/05/17 06:52:12;;;;;;;26.10;7.70;;;;;;;10.59;99.78;99984.84;5094303;28;20019;-62
2021/05/17 06:54:38;;;;;;;23.77;7.40;;;;;;;10.49;98.43;99977.88;5095113;28;20103;-62
2021/05/17 06:57:18;;;;;;;23.42;7.13;;;;;;;10.46;98.83;99984.06;5094058;28;20099;-62
2021/05/17 06:59:48;;;;;;;23.35;7.00;;;;;;;10.45;100.00;99984.94;5102198;28;20427;-62
2021/05/17 07:02:19;;;;;;;23.88;7.75;;;;;;;10.35;100.00;99993.84;5105795;28;20044;-62
2021/05/17 07:04:45;;;;;;;23.73;8.10;;;;;;;10.05;100.00;100000.22;5104787;28;20028;-62
2021/05/17 07:07:15;;;;;;;27.20;8.68;;;;;;;9.75;100.00;99996.88;5106592;28;20382;-62
2021/05/17 07:12:24;;;;;;;29.08;9.73;;;;;;;9.40;100.00;100000.56;5104478;28;20078;-62
2021/05/17 07:14:49;;;;;;;24.98;9.10;;;;;;;9.40;100.00;100003.22;5105865;28;20055;-62
2021/05/17 07:17:15;;;;;;;26.98;9.00;;;;;;;9.43;100.00;99995.28;5091756;28;20405;-61
2021/05/17 07:19:40;;;;;;;27.70;9.63;;;;;;;9.40;100.00;100006.72;5094871;28;20027;-61
2021/05/17 07:24:50;;;;;;;27.60;9.40;;;;;;;9.45;100.00;100001.44;5091300;28;20257;-62
2021/05/17 07:27:15;;;;;;;25.70;8.93;;;;;;;9.49;100.00;100008.44;5092795;28;20024;-62
2021/05/17 07:29:40;;;;;;;24.88;7.70;;;;;;;9.49;100.00;100004.94;5091080;28;20053;-62
2021/05/17 07:32:09;;;;;;;24.45;7.85;;;;;;;9.47;100.00;100007.56;5087791;28;20017;-63
2021/05/17 07:34:36;;;;;;;25.88;8.60;;;;;;;9.66;100.00;100004.84;5085448;28;20028;-62
2021/05/17 07:37:03;;;;;;;26.23;8.60;;;;;;;9.84;100.00;100017.94;5093329;28;20086;-61
2021/05/17 07:39:29;;;;;;;23.45;7.90;;;;;;;9.94;100.00;100013.47;5094036;28;20020;-61
2021/05/17 07:41:54;;;;;;;26.83;8.60;;;;;;;9.98;100.00;100014.34;5092787;28;20102;-62
2021/05/17 07:44:19;;;;;;;25.02;8.48;;;;;;;10.04;100.00;100007.25;5094030;28;20093;-62
2021/05/17 07:46:45;;;;;;;24.55;8.85;;;;;;;10.20;100.00;100009.78;5095334;28;20534;-62
2021/05/17 07:49:13;;;;;;;25.10;8.80;;;;;;;10.33;100.00;100008.81;5093387;28;20114;-62
2021/05/17 07:51:42;;;;;;;24.63;8.30;;;;;;;10.52;100.00;100006.06;5092509;28;20021;-62
2021/05/17 07:54:09;;;;;;;24.83;8.43;;;;;;;10.64;100.00;100005.94;5092923;28;20470;-62
2021/05/17 07:56:35;;;;;;;21.60;7.70;;;;;;;10.77;100.00;100004.06;5100302;28;20069;-62
2021/05/17 07:59:00;;;;;;;25.83;8.70;;;;;;;10.97;100.00;100004.72;5093045;28;20375;-63
2021/05/17 08:01:25;;;;;;;24.90;7.82;;;;;;;11.14;100.00;100007.19;5093855;28;20047;-62
2021/05/17 08:03:51;;;;;;;24.20;8.10;;;;;;;11.11;100.00;100008.97;5092798;28;20017;-62
2021/05/17 08:06:17;;;;;;;23.50;8.18;;;;;;;11.12;100.00;100003.66;5092719;28;20032;-62
2021/05/17 08:08:43;;;;;;;23.38;8.38;;;;;;;11.20;100.00;100002.69;5094285;28;20103;-62
2021/05/17 08:11:08;;;;;;;25.15;7.78;;;;;;;11.37;100.00;100013.09;5101539;28;20105;-63
2021/05/17 08:13:34;;;;;;;24.45;8.05;;;;;;;11.57;100.00;100021.66;5104267;28;20103;-63
2021/05/17 08:15:59;;;;;;;22.75;7.40;;;;;;;11.41;99.12;100014.81;5103152;28;20471;-63
2021/05/17 08:18:24;;;;;;;23.92;7.50;;;;;;;11.32;97.36;100015.81;5105388;28;20047;-63
2021/05/17 08:20:50;;;;;;;24.10;7.30;;;;;;;11.40;99.65;100016.59;5102205;28;20409;-63
2021/05/17 08:23:18;;;;;;;23.08;7.70;;;;;;;11.67;100.00;100006.53;5105393;28;20024;-63
2021/05/17 08:25:45;;;;;;;21.98;7.03;;;;;;;11.93;94.21;100019.47;5102193;28;20037;-74
2021/05/17 08:28:12;;;;;;;22.15;7.72;;;;;;;12.13;98.15;100021.81;5104999;28;20028;-77
2021/05/17 08:30:42;;;;;;;22.77;7.53;;;;;;;12.19;89.42;100021.72;5103216;28;20024;-74
2021/05/17 08:33:09;;;;;;;23.33;7.13;;;;;;;12.20;89.81;100028.78;5104610;28;20470;-70
2021/05/17 08:35:36;;;;;;;21.60;6.85;;;;;;;12.06;85.56;100024.56;5103784;28;20046;-74
2021/05/17 08:38:01;;;;;;;22.60;7.18;;;;;;;11.92;86.57;100024.75;5103853;28;20484;-74
2021/05/17 08:40:27;;;;;;;22.63;7.35;;;;;;;11.84;86.46;100020.44;5104755;28;20103;-74
2021/05/17 08:42:54;;;;;;;21.27;6.78;;;;;;;11.86;90.60;100029.22;5102238;28;20058;-74
2021/05/17 08:45:20;;;;;;;21.25;7.45;;;;;;;11.94;88.27;100030.91;5105370;28;20355;-75
2021/05/17 08:47:46;;;;;;;23.15;7.72;;;;;;;12.16;91.30;100023.56;5101923;28;20463;-75
2021/05/17 08:50:11;;;;;;;22.75;7.40;;;;;;;12.46;86.76;100030.13;5104756;28;20067;-75
2021/05/17 08:52:40;;;;;;;24.95;7.80;;;;;;;12.54;86.23;100035.31;5103108;28;20080;-76
2021/05/17 08:55:10;;;;;;;23.65;7.63;;;;;;;12.54;86.62;100016.75;5103657;28;20532;-73
2021/05/17 08:57:37;;;;;;;22.27;7.82;;;;;;;12.69;85.31;100018.25;5102526;28;20023;-73
2021/05/17 09:00:06;;;;;;;23.38;7.60;;;;;;;12.66;82.04;100026.28;5103225;28;20032;-75
2021/05/17 09:02:31;;;;;;;22.17;7.45;;;;;;;12.37;84.61;100025.84;5103357;28;20104;-74
2021/05/17 09:05:08;;;;;;;22.30;7.30;;;;;;;12.08;89.93;100023.66;5091267;28;20028;-64
2021/05/17 09:07:40;;;;;;;28.60;8.60;;;;;;;11.51;100.00;100027.03;5092844;28;20024;-63
2021/05/17 09:10:17;;;;;;;24.80;8.15;;;;;;;11.04;100.00;100032.00;5092039;28;20111;-64
2021/05/17 09:13:06;;;;;;;25.95;9.20;;;;;;;10.86;100.00;100029.53;5091791;28;20030;-64
2021/05/17 09:15:31;;;;;;;25.75;9.48;;;;;;;10.93;100.00;100029.44;5090819;28;20032;-63
2021/05/17 09:17:58;;;;;;;25.55;9.50;;;;;;;11.10;100.00;100026.63;5092554;28;20039;-64
2021/05/17 09:20:33;;;;;;;26.52;9.70;;;;;;;11.29;100.00;100026.44;5092238;28;20024;-63
2021/05/17 09:23:09;;;;;;;25.92;10.65;;;;;;;11.46;100.00;100035.03;5093697;28;20031;-62
2021/05/17 09:25:36;;;;;;;23.88;9.25;;;;;;;11.34;100.00;100035.19;5090519;28;20031;-64
2021/05/17 09:28:10;;;;;;;28.77;11.23;;;;;;;11.62;100.00;100035.72;5092997;28;20107;-64
2021/05/17 09:30:49;;;;;;;25.05;9.73;;;;;;;11.78;100.00;100041.69;5090983;28;20028;-62
2021/05/17 09:33:17;;;;;;;25.80;10.52;;;;;;;11.65;100.00;100032.19;5091447;28;20024;-63
2021/05/17 09:35:44;;;;;;;24.65;10.15;;;;;;;11.65;100.00;100037.47;5091044;28;20078;-63
2021/05/17 09:38:25;;;;;;;25.65;9.75;;;;;;;11.83;100.00;100036.34;5092024;28;20530;-63
2021/05/17 09:41:03;;;;;;;22.17;9.00;;;;;;;11.89;100.00;100053.91;5095104;28;20015;-63
2021/05/17 09:43:28;;;;;;;24.52;9.70;;;;;;;11.74;100.00;100033.81;5086882;28;20017;-63
2021/05/17 09:45:54;;;;;;;22.50;8.30;;;;;;;11.63;100.00;100036.59;5084337;28;20028;-63
2021/05/17 09:48:21;;;;;;;23.60;8.40;;;;;;;11.57;100.00;100044.63;5097376;28;20028;-64
2021/05/17 09:51:14;;;;;;;21.98;6.95;;;;;;;11.48;100.00;100049.13;5081474;28;20055;-63
2021/05/17 09:53:42;;;;;;;23.48;7.30;;;;;;;11.75;96.25;100041.75;5086510;28;20029;-63
2021/05/17 09:56:08;;;;;;;23.55;7.10;;;;;;;11.86;95.35;100045.09;5087926;28;20019;-63
2021/05/17 09:58:39;;;;;;;22.25;6.95;;;;;;;12.13;92.93;100045.66;5089309;28;20024;-63
2021/05/17 10:01:11;;;;;;;20.60;6.97;;;;;;;12.02;92.72;100043.16;5080335;28;20139;-62
2021/05/17 10:03:42;;;;;;;20.00;6.38;;;;;;;11.80;94.02;100042.53;5091192;28;20044;-63
2021/05/17 10:06:09;;;;;;;22.42;7.20;;;;;;;11.51;100.00;100046.44;5091785;28;20102;-62
2021/05/17 10:08:35;;;;;;;22.17;7.47;;;;;;;11.34;100.00;100040.47;5092798;28;20032;-62
2021/05/17 10:11:01;;;;;;;18.95;5.95;;;;;;;11.18;100.00;100058.28;5096076;28;20447;-62
2021/05/17 10:13:33;;;;;;;17.50;5.53;;;;;;;11.22;100.00;100043.25;5094794;28;20070;-62
2021/05/17 10:15:58;;;;;;;19.67;6.13;;;;;;;11.24;100.00;100052.94;5093169;28;20107;-63
2021/05/17 10:18:28;;;;;;;19.90;5.97;;;;;;;11.21;100.00;100054.72;5095373;28;20427;-62
2021/05/17 10:20:56;;;;;;;21.52;6.90;;;;;;;11.27;100.00;100052.91;5094972;28;20441;-62
2021/05/17 10:23:21;;;;;;;19.33;6.15;;;;;;;11.22;100.00;100054.72;5094658;28;20056;-63
2021/05/17 10:25:47;;;;;;;21.02;7.00;;;;;;;11.31;100.00;100053.72;5104862;28;20123;-62
2021/05/17 10:28:16;;;;;;;22.75;7.57;;;;;;;11.24;100.00;100062.63;5107776;28;20023;-62
2021/05/17 10:30:42;;;;;;;19.73;7.10;;;;;;;10.93;100.00;100065.59;5104338;28;20433;-63
2021/05/17 10:33:10;;;;;;;22.15;8.43;;;;;;;11.06;100.00;100064.56;5107566;28;20095;-62
2021/05/17 10:35:50;;;;;;;21.88;7.65;;;;;;;11.25;100.00;100067.03;5104670;28;20065;-62
2021/05/17 10:38:46;;;;;;;24.48;9.20;;;;;;;11.51;100.00;100064.09;5107787;28;20047;-63
2021/05/17 10:41:15;;;;;;;23.50;9.50;;;;;;;11.81;100.00;100061.94;5100936;28;20016;-63
2021/05/17 10:44:12;;;;;;;26.90;11.43;;;;;;;12.05;100.00;100066.06;5100882;28;20024;-63
2021/05/17 10:46:57;;;;;;;25.70;11.02;;;;;;;12.55;100.00;100059.16;5100378;28;20115;-63
2021/05/17 10:49:25;;;;;;;26.15;11.93;;;;;;;12.86;100.00;100063.94;5104210;28;20020;-63
2021/05/17 10:52:16;;;;;;;27.17;12.60;;;;;;;12.64;100.00;100065.19;5106724;28;20039;-63
2021/05/17 10:54:44;;;;;;;28.20;13.88;;;;;;;12.34;100.00;100072.72;5107713;28;20028;-69
2021/05/17 10:57:25;;;;;;;29.75;14.50;;;;;;;12.08;100.00;100068.69;5100263;28;20043;-71
2021/05/17 11:02:38;;;;;;;29.65;15.90;;;;;;;11.85;100.00;100067.22;5099784;28;20054;-71
2021/05/17 11:05:18;;;;;;;32.05;17.50;;;;;;;11.98;100.00;100070.56;5106714;28;20462;-71
2021/05/17 11:07:52;;;;;;;33.63;18.83;;;;;;;12.33;100.00;100073.63;5101054;28;20525;-69
2021/05/17 11:10:35;;;;;;;34.58;20.15;;;;;;;13.52;100.00;100074.25;5106958;27;20015;-70
2021/05/17 11:13:03;;;;;;;31.67;17.52;;;;;;;15.36;85.44;100067.28;5106650;28;20417;-70
2021/05/17 11:15:51;;;;;;;28.17;15.38;;;;;;;16.86;79.17;100085.84;5104836;28;20027;-70
2021/05/17 11:18:16;;;;;;;27.73;14.57;;;;;;;17.16;64.66;100088.38;5085882;28;20491;-70
2021/05/17 11:20:44;;;;;;;26.75;14.10;;;;;;;16.36;67.16;100085.69;5092375;28;20032;-71
2021/05/17 11:23:12;;;;;;;27.80;16.05;;;;;;;15.13;74.92;100084.72;5089412;28;20032;-70
2021/05/17 11:25:49;;;;;;;28.95;16.35;;;;;;;14.24;78.40;100088.66;5092774;28;20050;-70
2021/05/17 11:28:15;;;;;;;29.63;16.77;;;;;;;13.64;83.53;100092.56;5087750;28;20114;-71
2021/05/17 11:30:43;;;;;;;29.02;16.80;;;;;;;13.05;84.22;100092.78;5083673;28;20037;-67
2021/05/17 11:33:14;;;;;;;32.08;18.30;;;;;;;12.67;92.32;100108.44;5085651;28;20121;-74
2021/05/17 11:36:14;;;;;;;31.27;18.65;;;;;;;12.21;100.00;100112.66;5087474;28;20036;-74
2021/05/17 11:39:02;;;;;;;29.75;17.13;;;;;;;11.93;100.00;100108.59;5083869;28;20047;-69